CW2157 Weather Reports


Display with metric or nautical units.
time (UTC)temp
F
wind
direction
speed
MPH
gust
MPH
rain 1hr
in
rain 24hr
in
rain mn
in
humidity
%
barometer
mb
20210801075204 73 162 4.0 7.0 0.00 0.00 0.00 88 1011.3
20210801074704 73 183 6.0 9.0 0.00 0.00 0.00 88 1011.3
20210801074205 73 144 2.0 6.0 0.00 0.00 0.00 89 1011.1
20210801073704 73 163 5.0 7.0 0.00 0.00 0.00 89 1011.0
20210801073204 73 168 5.0 8.0 0.00 0.00 0.00 89 1011.0
20210801072704 73 157 2.0 5.0 0.00 0.00 0.00 90 1011.0
20210801072205 73 158 1.0 3.0 0.00 0.00 0.00 89 1011.0
20210801071704 73 158 2.0 3.0 0.00 0.00 0.00 89 1011.0
20210801071204 73 181 5.0 8.0 0.00 0.00 0.00 89 1011.1
20210801070705 73 135 3.0 7.0 0.00 0.00 0.00 90 1011.2
20210801070204 73 139 2.0 5.0 0.00 0.00 0.00 89 1011.1
20210801065705 73 151 2.0 3.0 0.00 0.00 0.00 88 1011.2
20210801065204 73 149 3.0 9.0 0.00 0.00 0.00 89 1011.3
20210801064704 73 139 2.0 8.0 0.00 0.00 0.00 89 1011.4
20210801064205 73 142 4.0 7.0 0.00 0.00 0.00 88 1011.5
20210801063705 73 140 2.0 5.0 0.00 0.00 0.00 88 1011.4
20210801063204 73 143 3.0 5.0 0.00 0.00 0.00 88 1011.4
20210801062704 73 133 2.0 5.0 0.00 0.00 0.00 88 1011.4
20210801062204 73 112 2.0 3.0 0.00 0.00 0.00 88 1011.4
20210801061704 73 114 2.0 7.0 0.00 0.00 0.00 88 1011.4
20210801061205 73 138 4.0 7.0 0.00 0.00 0.00 87 1011.4
20210801060704 73 133 3.0 5.0 0.00 0.00 0.00 87 1011.4
20210801060204 73 130 4.0 7.0 0.00 0.00 0.00 88 1011.4
20210801055705 73 143 2.0 7.0 0.00 0.00 0.00 87 1011.5
20210801055205 73 116 4.0 7.0 0.00 0.00 0.00 87 1011.6
20210801054704 73 151 4.0 7.0 0.00 0.00 0.00 87 1011.5
20210801054204 73 143 3.0 7.0 0.00 0.00 0.00 87 1011.6
20210801053705 73 138 3.0 7.0 0.00 0.00 0.00 88 1011.7
20210801053204 73 144 4.0 7.0 0.00 0.00 0.00 87 1011.8
20210801052704 73 184 5.0 9.0 0.00 0.00 0.00 86 1011.9
20210801052204 73 163 5.0 7.0 0.00 0.00 0.00 86 1011.9
20210801051704 73 155 2.0 5.0 0.00 0.00 0.00 85 1011.9
20210801051205 73 184 5.0 7.0 0.00 0.00 0.00 85 1012.0
20210801050704 73 177 4.0 9.0 0.00 0.00 0.00 86 1012.0
20210801050205 73 156 2.0 3.0 0.00 0.00 0.00 86 1012.1
20210801045704 73 148 2.0 8.0 0.00 0.00 0.00 86 1012.2
20210801045204 73 140 5.0 9.0 0.00 0.00 0.00 86 1012.2
20210801044704 73 135 4.0 12.0 0.00 0.00 0.00 86 1012.3
20210801044205 73 162 4.0 9.0 0.00 0.00 0.00 87 1012.4
20210801043704 73 153 5.0 10.0 0.00 0.00 0.00 86 1012.5
20210801043204 73 166 5.0 12.0 0.00 0.00 0.00 86 1012.6
20210801042705 74 169 7.0 12.0 0.00 0.00 0.00 86 1012.5
20210801042205 74 134 8.0 12.0 0.00 0.00 0.00 86 1012.5
20210801041704 74 187 6.0 10.0 0.00 0.00 0.00 85 1012.6
20210801041204 74 174 6.0 9.0 0.00 0.00 0.00 84 1012.7
20210801040704 74 166 6.0 10.0 0.00 0.00 0.00 85 1012.7
20210801040204 74 162 5.0 10.0 0.00 0.00 0.00 84 1012.8
20210801035705 74 170 8.0 13.0 0.00 0.00 0.00 83 1012.8
20210801035205 74 163 7.0 12.0 0.00 0.00 0.00 83 1012.9
20210801034704 75 145 5.0 9.0 0.00 0.00 0.00 81 1012.9
20210801034205 75 128 6.0 9.0 0.00 0.00 0.00 79 1012.9
20210801033705 74 120 5.0 12.0 0.00 0.00 0.00 79 1012.7
20210801033205 74 135 5.0 8.0 0.00 0.00 0.00 78 1012.6
20210801032704 74 170 7.0 12.0 0.00 0.00 0.00 79 1012.7
20210801032205 74 159 5.0 12.0 0.00 0.00 0.00 80 1012.7
20210801031704 74 178 3.0 7.0 0.00 0.00 0.00 78 1012.7
20210801031204 74 177 5.0 8.0 0.00 0.00 0.00 79 1012.7
20210801030705 74 152 3.0 6.0 0.00 0.00 0.00 79 1012.7
20210801030204 74 117 2.0 5.0 0.00 0.00 0.00 79 1012.8
20210801025705 74 157 2.0 6.0 0.00 0.00 0.00 79 1012.9
20210801025204 74 135 2.0 3.0 0.00 0.00 0.00 79 1013.1
20210801024704 74 142 0.0 3.0 0.00 0.00 0.00 80 1013.1
20210801024204 74 142 1.0 3.0 0.00 0.00 0.00 81 1012.9
20210801023705 74 139 0.0 0.0 0.00 0.00 0.00 80 1013.0
20210801023205 74 139 0.0 0.0 0.00 0.00 0.00 79 1012.9
20210801022705 74 139 1.0 2.0 0.00 0.00 0.00 79 1012.9
20210801022204 74 139 1.0 2.0 0.00 0.00 0.00 78 1012.9
20210801021704 74 139 1.0 2.0 0.00 0.00 0.00 77 1012.7
20210801021205 74 139 1.0 3.0 0.00 0.00 0.00 77 1012.7
20210801020704 73 139 1.0 3.0 0.00 0.00 0.00 77 1012.7
20210801020204 73 139 2.0 3.0 0.00 0.00 0.00 77 1012.7
20210801015705 73 139 1.0 3.0 0.00 0.00 0.00 77 1012.7
20210801015204 73 139 1.0 3.0 0.00 0.00 0.00 78 1012.7
20210801014704 73 139 1.0 3.0 0.00 0.00 0.00 79 1012.8
20210801014204 72 139 2.0 3.0 0.00 0.00 0.00 78 1012.8
20210801013705 72 139 1.0 3.0 0.00 0.00 0.00 81 1012.7
20210801013205 71 139 1.0 3.0 0.00 0.00 0.00 83 1012.7
20210801012705 71 141 0.0 0.0 0.00 0.00 0.00 83 1012.8
20210801012205 71 141 0.0 2.0 0.00 0.00 0.00 80 1012.8
20210801011704 71 141 2.0 3.0 0.00 0.00 0.00 77 1012.8
20210801011204 71 141 0.0 2.0 0.00 0.00 0.00 77 1012.7
20210801010704 71 141 0.0 2.0 0.00 0.00 0.00 76 1012.7
20210801010204 72 141 1.0 3.0 0.00 0.00 0.00 75 1012.5
20210801005704 72 141 2.0 3.0 0.00 0.00 0.00 75 1012.5
20210801005204 72 141 0.0 0.0 0.00 0.00 0.00 74 1012.5
20210801004704 72 141 0.0 0.0 0.00 0.00 0.00 74 1012.4
20210801004204 73 141 0.0 0.0 0.00 0.00 0.00 73 1012.3
20210801003705 73 141 1.0 2.0 0.00 0.00 0.00 72 1012.3
20210801003204 73 141 2.0 3.0 0.00 0.00 0.00 72 1012.3
20210801002704 74 141 0.0 1.0 0.00 0.00 0.00 69 1012.3
20210801002205 74 142 0.0 1.0 0.00 0.00 0.00 69 1012.3
20210801001705 74 147 0.0 0.0 0.00 0.00 0.00 69 1012.4
20210801001204 74 147 0.0 0.0 0.00 0.00 0.00 69 1012.4
20210801000704 75 147 0.0 1.0 0.00 0.00 0.00 68 1012.3
20210801000204 75 147 1.0 2.0 0.00 0.00 0.00 70 1012.3
20210731235704 75 147 1.0 2.0 0.00 0.00 0.00 69 1012.2
20210731235205 76 147 1.0 2.0 0.00 0.00 0.00 67 1012.4
20210731234704 76 147 1.0 3.0 0.00 0.00 0.00 66 1012.4
20210731234204 76 147 2.0 3.0 0.00 0.00 0.00 66 1012.4
20210731233705 76 147 1.0 3.0 0.00 0.00 0.00 67 1012.3
20210731233205 76 147 2.0 3.0 0.00 0.00 0.00 68 1012.3
20210731232704 76 147 1.0 3.0 0.00 0.00 0.00 67 1012.5
20210731232205 76 147 2.0 3.0 0.00 0.00 0.00 63 1012.5
20210731231705 76 147 1.0 3.0 0.00 0.00 0.00 62 1012.5
20210731231204 77 147 2.0 3.0 0.00 0.00 0.00 62 1012.5
20210731230704 77 147 2.0 3.0 0.00 0.00 0.00 63 1012.4
20210731230205 77 147 2.0 3.0 0.00 0.00 0.00 63 1012.5
20210731225704 77 147 2.0 3.0 0.00 0.00 0.00 63 1012.5
20210731225204 77 147 3.0 5.0 0.00 0.00 0.00 65 1012.5
20210731224705 77 157 3.0 3.0 0.00 0.00 0.00 64 1012.6
20210731224204 77 155 2.0 3.0 0.00 0.00 0.00 65 1012.6
20210731223704 77 165 2.0 6.0 0.00 0.00 0.00 63 1012.6
20210731223205 77 151 3.0 6.0 0.00 0.00 0.00 63 1012.6
20210731222704 77 167 2.0 5.0 0.00 0.00 0.00 61 1012.6
20210731222205 77 168 5.0 6.0 0.00 0.00 0.00 65 1012.5
20210731221704 77 170 2.0 3.0 0.00 0.00 0.00 64 1012.6
20210731221204 77 173 2.0 5.0 0.00 0.00 0.00 66 1012.7
20210731220704 78 162 3.0 5.0 0.00 0.00 0.00 64 1012.8
20210731220204 78 224 2.0 5.0 0.00 0.00 0.00 63 1012.9
20210731215705 77 224 3.0 6.0 0.00 0.00 0.00 60 1012.9
20210731215204 77 214 2.0 5.0 0.00 0.00 0.00 62 1013.0
20210731214704 77 220 2.0 3.0 0.00 0.00 0.00 62 1012.9
20210731214204 77 219 2.0 3.0 0.00 0.00 0.00 62 1012.9
20210731213705 77 240 1.0 3.0 0.00 0.00 0.00 61 1013.0
20210731213204 77 239 0.0 3.0 0.00 0.00 0.00 60 1013.0
20210731212704 77 239 2.0 3.0 0.00 0.00 0.00 60 1013.1
20210731212205 77 239 0.0 2.0 0.00 0.00 0.00 62 1013.1
20210731211704 77 229 1.0 3.0 0.00 0.00 0.00 63 1013.2
20210731211204 77 232 2.0 3.0 0.00 0.00 0.00 60 1013.2
20210731210705 77 232 2.0 5.0 0.00 0.00 0.00 61 1013.3
20210731210204 78 261 2.0 6.0 0.00 0.00 0.00 59 1013.4
20210731205704 78 233 1.0 5.0 0.00 0.00 0.00 59 1013.4
20210731205204 78 218 2.0 5.0 0.00 0.00 0.00 60 1013.4
20210731204705 78 235 1.0 3.0 0.00 0.00 0.00 58 1013.4
20210731204204 79 234 2.0 7.0 0.00 0.00 0.00 58 1013.4
20210731203704 79 220 5.0 6.0 0.00 0.00 0.00 59 1013.4
20210731203204 79 231 3.0 6.0 0.00 0.00 0.00 55 1013.4
20210731202705 79 222 5.0 9.0 0.00 0.00 0.00 55 1013.4
20210731202204 79 224 5.0 8.0 0.00 0.00 0.00 55 1013.5
20210731201704 79 226 5.0 8.0 0.00 0.00 0.00 56 1013.6
20210731201204 79 225 3.0 8.0 0.00 0.00 0.00 57 1013.5
20210731200705 79 244 3.0 7.0 0.00 0.00 0.00 56 1013.5
20210731200205 79 233 5.0 9.0 0.00 0.00 0.00 54 1013.6
20210731195704 80 226 2.0 9.0 0.00 0.00 0.00 54 1013.6
20210731195204 80 228 7.0 12.0 0.00 0.00 0.00 54 1013.7
20210731194704 81 231 1.0 5.0 0.00 0.00 0.00 54 1013.6
20210731194204 81 253 3.0 7.0 0.00 0.00 0.00 54 1013.5
20210731193705 81 221 3.0 8.0 0.00 0.00 0.00 53 1013.5
20210731193204 80 235 5.0 8.0 0.00 0.00 0.00 57 1013.7
20210731192705 80 233 5.0 8.0 0.00 0.00 0.00 53 1013.8
20210731192204 80 237 7.0 12.0 0.00 0.00 0.00 59 1013.8
20210731191704 80 211 2.0 6.0 0.00 0.00 0.00 57 1013.9
20210731191204 80 174 2.0 6.0 0.00 0.00 0.00 56 1014.0
20210731190705 80 165 6.0 12.0 0.00 0.00 0.00 55 1014.0
20210731190204 80 227 5.0 9.0 0.00 0.00 0.00 56 1014.0
20210731185704 80 228 4.0 5.0 0.00 0.00 0.00 57 1014.1
20210731185205 80 225 3.0 3.0 0.00 0.00 0.00 52 1014.1
20210731184705 80 225 1.0 3.0 0.00 0.00 0.00 54 1014.2
20210731184204 79 226 4.0 5.0 0.00 0.00 0.00 54 1014.3
20210731183704 79 214 2.0 5.0 0.00 0.00 0.00 56 1014.3
20210731183204 79 220 3.0 3.0 0.00 0.00 0.00 55 1014.3
20210731182704 79 236 2.0 5.0 0.00 0.00 0.00 56 1014.4
20210731182204 79 230 3.0 3.0 0.00 0.00 0.00 56 1014.4
20210731181704 79 226 2.0 5.0 0.00 0.00 0.00 53 1014.4
20210731181205 79 238 1.0 3.0 0.00 0.00 0.00 54 1014.4
20210731180704 78 233 2.0 5.0 0.00 0.00 0.00 60 1014.4
20210731180204 78 327 3.0 8.0 0.00 0.00 0.00 57 1014.6
20210731175704 78 344 3.0 5.0 0.00 0.00 0.00 57 1014.6
20210731175204 78 319 3.0 7.0 0.00 0.00 0.00 57 1014.5
20210731174704 77 280 0.0 3.0 0.00 0.00 0.00 58 1014.5
20210731174204 77 274 2.0 5.0 0.00 0.00 0.00 57 1014.5
20210731173705 77 345 2.0 6.0 0.00 0.00 0.00 58 1014.5
20210731173204 77 35 1.0 7.0 0.00 0.00 0.00 56 1014.6
20210731172704 77 53 5.0 9.0 0.00 0.00 0.00 58 1014.5
20210731172205 76 67 3.0 5.0 0.00 0.00 0.00 54 1014.6
20210731171704 76 64 6.0 10.0 0.00 0.00 0.00 61 1014.8
20210731171205 76 19 3.0 8.0 0.00 0.00 0.00 56 1014.9
20210731170704 76 344 4.0 7.0 0.00 0.00 0.00 54 1014.9
20210731170204 76 56 3.0 6.0 0.00 0.00 0.00 56 1014.9
20210731165704 76 337 2.0 10.0 0.00 0.00 0.00 58 1015.0
20210731165204 76 347 5.0 9.0 0.00 0.00 0.00 61 1015.0
20210731164705 76 3 3.0 10.0 0.00 0.00 0.00 57 1015.0
20210731164204 76 316 5.0 10.0 0.00 0.00 0.00 55 1015.0
20210731163704 75 43 6.0 9.0 0.00 0.00 0.00 59 1015.1
20210731163205 75 32 5.0 8.0 0.00 0.00 0.00 59 1015.1
20210731162704 75 58 3.0 8.0 0.00 0.00 0.00 59 1015.2
20210731162204 74 30 1.0 6.0 0.00 0.00 0.00 58 1015.2
20210731161705 74 38 5.0 10.0 0.00 0.00 0.00 59 1015.2
20210731161204 74 49 7.0 10.0 0.00 0.00 0.00 60 1015.3
20210731160705 74 1 3.0 10.0 0.00 0.00 0.00 60 1015.3
20210731160205 74 350 6.0 10.0 0.00 0.00 0.00 60 1015.5
20210731155704 73 341 4.0 8.0 0.00 0.00 0.00 60 1015.6
20210731155204 73 43 5.0 9.0 0.00 0.00 0.00 62 1015.7
20210731154704 72 307 3.0 7.0 0.00 0.00 0.00 61 1015.7
20210731154205 72 27 6.0 12.0 0.00 0.00 0.00 61 1015.8
20210731153704 72 327 6.0 12.0 0.00 0.00 0.00 60 1015.9
20210731153204 72 53 6.0 10.0 0.00 0.00 0.00 64 1015.9
20210731152704 71 55 6.0 10.0 0.00 0.00 0.00 62 1015.9
20210731152204 71 50 5.0 8.0 0.00 0.00 0.00 66 1016.0
20210731151704 71 32 6.0 10.0 0.00 0.00 0.00 61 1016.1
20210731151204 71 49 6.0 12.0 0.00 0.00 0.00 63 1016.1
20210731150704 71 47 8.0 12.0 0.00 0.00 0.00 65 1016.2
20210731150205 70 61 7.0 10.0 0.00 0.00 0.00 63 1016.2
20210731145704 70 57 6.0 10.0 0.00 0.00 0.00 64 1016.2
20210731145204 70 36 7.0 12.0 0.00 0.00 0.00 63 1016.3
20210731144705 70 64 6.0 12.0 0.00 0.00 0.00 66 1016.2
20210731144204 70 37 9.0 12.0 0.00 0.00 0.00 64 1016.2
20210731143704 70 27 6.0 12.0 0.00 0.00 0.00 63 1016.4
20210731143204 70 54 5.0 12.0 0.00 0.00 0.00 64 1016.2
20210731142704 70 28 5.0 10.0 0.00 0.00 0.00 64 1015.9
20210731142204 70 57 6.0 8.0 0.00 0.00 0.00 68 1016.0
20210731141705 70 59 5.0 9.0 0.00 0.00 0.00 66 1016.0
20210731141204 69 64 6.0 10.0 0.00 0.00 0.00 66 1015.9
20210731140704 69 59 6.0 12.0 0.00 0.00 0.00 66 1015.8
20210731140204 69 54 10.0 15.0 0.00 0.00 0.00 67 1015.9
20210731135705 69 61 7.0 12.0 0.00 0.00 0.00 68 1015.8
20210731135204 69 50 7.0 10.0 0.00 0.00 0.00 70 1015.9
20210731134704 69 73 6.0 10.0 0.00 0.00 0.00 71 1015.9
20210731134204 69 56 6.0 12.0 0.00 0.00 0.00 68 1015.9
20210731133704 69 50 5.0 13.0 0.00 0.00 0.00 68 1015.9
20210731133205 69 26 7.0 10.0 0.00 0.00 0.00 68 1015.7
20210731132704 68 37 5.0 12.0 0.00 0.00 0.00 70 1015.8
20210731132204 68 61 6.0 12.0 0.00 0.00 0.00 68 1015.6
20210731131705 68 63 6.0 10.0 0.00 0.00 0.00 71 1015.7
20210731131204 68 32 6.0 12.0 0.00 0.00 0.00 70 1015.8
20210731130704 68 41 3.0 12.0 0.00 0.00 0.00 72 1015.7
20210731130204 68 42 6.0 12.0 0.00 0.00 0.00 72 1015.5
20210731125704 67 67 6.0 10.0 0.00 0.00 0.00 72 1015.5
20210731125204 67 61 7.0 12.0 0.00 0.00 0.00 72 1015.5
20210731124704 67 37 6.0 9.0 0.00 0.00 0.00 70 1015.8
20210731124204 67 65 7.0 12.0 0.00 0.00 0.00 71 1015.7
20210731123704 67 64 9.0 14.0 0.00 0.00 0.00 72 1015.7
20210731123204 67 59 7.0 12.0 0.00 0.00 0.00 71 1015.7
20210731122705 67 50 6.0 12.0 0.00 0.00 0.00 71 1015.8
20210731122204 67 43 5.0 10.0 0.00 0.00 0.00 71 1015.8
20210731121705 67 38 7.0 12.0 0.00 0.00 0.00 72 1015.8
20210731121204 67 47 5.0 10.0 0.00 0.00 0.00 73 1015.8
20210731120704 67 34 5.0 9.0 0.00 0.00 0.00 72 1015.9
20210731120204 67 17 3.0 9.0 0.00 0.00 0.00 72 1015.7
20210731115705 67 30 5.0 9.0 0.00 0.00 0.00 73 1015.8
20210731115204 67 12 5.0 10.0 0.00 0.00 0.00 72 1015.6
20210731114704 67 11 5.0 8.0 0.00 0.00 0.00 72 1015.6
20210731114204 67 44 6.0 9.0 0.00 0.00 0.00 73 1015.6
20210731113704 67 30 6.0 10.0 0.00 0.00 0.00 73 1015.6
20210731113205 67 45 6.0 12.0 0.00 0.00 0.00 71 1015.7
20210731112704 67 33 6.0 12.0 0.00 0.00 0.00 73 1015.7
20210731112204 67 21 6.0 13.0 0.00 0.00 0.00 72 1015.6
20210731111705 67 30 5.0 12.0 0.00 0.00 0.00 72 1015.6
20210731111204 67 28 5.0 8.0 0.00 0.00 0.00 72 1015.5
20210731110704 67 40 7.0 12.0 0.00 0.00 0.00 73 1015.4
20210731110204 67 29 5.0 12.0 0.00 0.00 0.00 72 1015.2
20210731105704 67 17 6.0 10.0 0.00 0.00 0.00 72 1015.2
20210731105204 67 39 8.0 12.0 0.00 0.00 0.00 72 1015.1
20210731104704 67 58 7.0 12.0 0.00 0.00 0.00 73 1015.1
20210731104204 67 39 8.0 12.0 0.00 0.00 0.00 72 1015.0
20210731103705 68 44 10.0 14.0 0.00 0.00 0.00 73 1014.9
20210731103204 68 49 10.0 15.0 0.00 0.00 0.00 72 1015.0
20210731102704 68 53 9.0 12.0 0.00 0.00 0.00 71 1014.9
20210731102205 68 55 7.0 12.0 0.00 0.00 0.00 72 1014.8
20210731101704 68 62 8.0 12.0 0.00 0.00 0.00 72 1014.9
20210731101204 68 61 10.0 12.0 0.00 0.00 0.00 72 1014.8
20210731100704 68 39 7.0 10.0 0.00 0.00 0.00 72 1014.7
20210731100204 68 46 6.0 13.0 0.00 0.00 0.00 72 1014.7
20210731095704 68 43 9.0 13.0 0.00 0.00 0.00 72 1014.7
20210731095204 68 47 9.0 12.0 0.00 0.00 0.00 73 1014.7
20210731094704 68 26 5.0 9.0 0.00 0.00 0.00 73 1014.6
20210731094204 68 42 8.0 12.0 0.00 0.00 0.00 73 1014.5
20210731093704 68 44 7.0 12.0 0.00 0.00 0.00 72 1014.6
20210731093204 68 38 5.0 9.0 0.00 0.00 0.00 71 1014.6
20210731092704 68 30 5.0 10.0 0.00 0.00 0.00 72 1014.5
20210731092204 68 43 5.0 8.0 0.00 0.00 0.00 71 1014.4
20210731091704 68 33 6.0 12.0 0.00 0.00 0.00 72 1014.5
20210731091204 68 35 5.0 12.0 0.00 0.00 0.00 72 1014.3
20210731090704 68 44 4.0 10.0 0.00 0.00 0.00 71 1014.3
20210731090204 68 46 5.0 12.0 0.00 0.00 0.00 72 1014.3
20210731085704 68 33 4.0 10.0 0.00 0.00 0.00 70 1014.1
20210731085205 69 40 6.0 12.0 0.00 0.00 0.00 70 1014.1
20210731084704 69 7 5.0 12.0 0.00 0.00 0.00 70 1014.1
20210731084204 69 36 6.0 10.0 0.00 0.00 0.00 71 1014.1
20210731083705 69 26 5.0 9.0 0.00 0.00 0.00 70 1014.0
20210731083204 69 45 5.0 10.0 0.00 0.00 0.00 70 1014.0
20210731082704 69 53 8.0 12.0 0.00 0.00 0.00 70 1014.0
20210731082204 69 36 6.0 12.0 0.00 0.00 0.00 70 1014.1
20210731081704 70 46 6.0 12.0 0.00 0.00 0.00 70 1014.0
20210731081204 70 54 8.0 12.0 0.00 0.00 0.00 71 1014.0
20210731080704 70 30 5.0 9.0 0.00 0.00 0.00 69 1014.0
20210731080204 70 46 5.0 9.0 0.00 0.00 0.00 68 1014.0
20210731075704 70 24 6.0 12.0 0.00 0.00 0.00 68 1014.0